This is the latest recevied weather packets stored in our database for station/object KC1DMA. If no packets are shown the sender has not sent any weather packets the latest 10 day(s).
| Time | Temp. | Humidity | Pressure | Rain* | Wind** | Luminosity | Snow |
|---|---|---|---|---|---|---|---|
| 1777410249 | 17.78° C | 44% | 1019.9 hPa | - | - | 233 W/m² | - |
| 1777406895 | 18.89° C | 41% | 1020.7 hPa | - | - | 505 W/m² | - |
| 1777405985 | 20° C | 41% | 1020.7 hPa | - | - | 644 W/m² | - |
| 1777405075 | 19.44° C | 40% | 1021.1 hPa | - | - | 527 W/m² | - |
| 1777404769 | 20° C | 40% | 1021.2 hPa | - | - | 576 W/m² | - |
| 1777403858 | 19.44° C | 39% | 1021.2 hPa | - | - | 525 W/m² | - |
| 1777400524 | 18.89° C | 43% | 1021.6 hPa | - | - | 549 W/m² | - |
| 1777397797 | 18.89° C | 44% | 1022.1 hPa | - | - | 777 W/m² | - |
| 1777397188 | 18.89° C | 44% | 1022 hPa | - | - | 777 W/m² | - |
| 1777396279 | 18.33° C | 45% | 1022.3 hPa | - | - | 826 W/m² | - |
| 1777395675 | 17.78° C | 48% | 1022.1 hPa | - | - | 622 W/m² | - |
| 1777395372 | 17.78° C | 48% | 1022.2 hPa | - | - | 622 W/m² | - |
| 1777394766 | 17.78° C | 48% | 1022.3 hPa | - | - | 622 W/m² | - |
| 1777394462 | 17.78° C | 48% | 1022.3 hPa | - | - | 622 W/m² | - |
| 1777394158 | 17.22° C | 48% | 1022.5 hPa | - | - | 764 W/m² | - |
| 1777393553 | 17.22° C | 48% | 1022.4 hPa | - | - | 764 W/m² | - |
| 1777393249 | 17.22° C | 48% | 1022.5 hPa | - | - | 764 W/m² | - |
| 1777392338 | 17.78° C | 45% | 1022.6 hPa | - | - | 763 W/m² | - |
| 1777391733 | 17.78° C | 47% | 1022.6 hPa | - | - | 754 W/m² | - |
| 1777391430 | 17.22° C | 45% | 1022.5 hPa | - | - | 773 W/m² | - |
| 1777390520 | 17.22° C | 45% | 1022.9 hPa | - | - | 773 W/m² | - |
| 1777382332 | 13.89° C | 55% | 1023.6 hPa | - | - | 308 W/m² | - |
| 1777381723 | 13.89° C | 55% | 1023.6 hPa | - | - | 308 W/m² | - |
| 1777379902 | 13.89° C | 55% | 1023.9 hPa | - | - | 308 W/m² | - |
| 1777379288 | 13.89° C | 55% | 1024 hPa | - | - | 308 W/m² | - |
* Rain since midnight (hover to see other rain measurements)
** Current wind speed in m/s (hover to see current wind gust speed)